YITT weather

Mitta Mitta Airport
Victoria, Australia

Public forecast

Using degrees Celsius for public forecast. Weather courtesy of forecast.io.

Closest aviation weather report (METAR) to Mitta Mitta Airport

Closest report is Albury Airport, 33.1 nm (61.3 km) NW. Retrieved 2020/05/29 04:00 UTC (23 minutes ago):

YMAY 290400Z AUTO 08003KT 9999 // OVC048 15/11 Q1027

Closest aviation forecast (TAF) to Mitta Mitta Airport

Forecast is more than 6 hours old.

Closest forecast is Wangaratta Airport, 51.1 nm (94.7 km) W. Retrieved 2020/05/28 20:00 UTC (8 hours ago):

TAF YWGT 281853Z 2820/2908 VRB03KT 0300 FG BKN001 BECMG 2823/2901 VRB03KT 9999 NSW BKN005 FM290200 VRB03KT 9999 SCT020